Time;durP1;ratioP1;P1;durP2;ratioP2;P2;SDS_P1;SDS_P2;PMS_P1;PMS_P2;Temp;Humidity;BMP_temperature;BMP_pressure;BME280_temperature;BME280_humidity;BME280_pressure;Samples;Min_cycle;Max_cycle;Signal;HPM_P1;HPM_P2
2022/06/11 00:01:23;;;;;;;13.43;5.20;;;17.10;99.90;;;;;;5079248;28;20039;-70
2022/06/11 00:03:52;;;;;;;10.73;4.88;;;16.90;99.90;;;;;;5093703;28;20457;-70
2022/06/11 00:06:19;;;;;;;8.95;5.05;;;17.00;99.90;;;;;;5077117;28;20040;-70
2022/06/11 00:08:46;;;;;;;8.63;3.33;;;16.90;99.90;;;;;;5092946;28;20610;-70
2022/06/11 00:11:13;;;;;;;8.32;3.00;;;16.90;99.90;;;;;;5090811;28;20122;-70
2022/06/11 00:13:39;;;;;;;7.95;2.53;;;16.90;99.90;;;;;;5074775;28;20032;-70
2022/06/11 00:16:06;;;;;;;7.15;2.38;;;16.90;99.90;;;;;;5081426;28;20043;-70
2022/06/11 00:18:34;;;;;;;6.05;1.80;;;17.00;99.90;;;;;;5074635;28;20035;-70
2022/06/11 00:20:59;;;;;;;4.63;1.75;;;16.90;99.90;;;;;;5095478;28;20040;-70
2022/06/11 00:23:26;;;;;;;8.95;2.10;;;17.00;99.90;;;;;;5096420;28;20043;-70
2022/06/11 00:25:52;;;;;;;6.05;1.67;;;16.90;99.90;;;;;;5093154;28;20439;-70
2022/06/11 00:28:19;;;;;;;6.78;2.00;;;17.00;99.90;;;;;;5091920;28;20130;-70
2022/06/11 00:30:45;;;;;;;3.60;1.40;;;17.20;99.90;;;;;;5074801;28;20054;-70
2022/06/11 00:33:11;;;;;;;6.43;1.20;;;16.90;99.90;;;;;;5076060;28;20126;-69
2022/06/11 00:35:39;;;;;;;3.67;1.10;;;16.90;99.90;;;;;;5107947;27;20446;-70
2022/06/11 00:38:06;;;;;;;5.97;1.48;;;16.80;99.90;;;;;;5093214;28;20085;-70
2022/06/11 00:40:34;;;;;;;5.10;1.63;;;16.90;99.90;;;;;;5096036;28;20436;-70
2022/06/11 00:43:00;;;;;;;5.50;1.27;;;16.70;99.90;;;;;;5060706;28;20043;-70
2022/06/11 00:45:41;;;;;;;5.28;1.42;;;16.60;99.90;;;;;;5076319;28;20043;-70
2022/06/11 00:48:30;;;;;;;6.28;1.00;;;16.60;99.90;;;;;;5094774;28;20452;-70
2022/06/11 00:51:19;;;;;;;5.20;1.42;;;16.50;99.90;;;;;;5076942;28;20474;-70
2022/06/11 00:53:57;;;;;;;5.60;1.30;;;16.30;99.90;;;;;;5090550;28;20137;-70
2022/06/11 00:56:36;;;;;;;5.43;1.48;;;16.30;99.90;;;;;;5105478;27;20040;-70
2022/06/11 00:59:05;;;;;;;5.50;2.08;;;16.20;99.90;;;;;;5104196;27;20056;-70
2022/06/11 01:01:31;;;;;;;6.32;1.50;;;16.10;99.90;;;;;;5075677;28;20040;-70
2022/06/11 01:03:59;;;;;;;5.85;1.20;;;16.00;99.90;;;;;;5078238;28;20052;-70
2022/06/11 01:06:52;;;;;;;1.92;1.25;;;16.00;99.90;;;;;;5090659;28;20040;-70
2022/06/11 01:09:17;;;;;;;7.50;2.25;;;15.90;99.90;;;;;;5094516;28;20040;-70
2022/06/11 01:12:05;;;;;;;4.65;1.55;;;15.90;99.90;;;;;;5059133;28;20044;-70
2022/06/11 01:14:37;;;;;;;5.68;1.50;;;15.90;99.90;;;;;;5095666;28;20076;-70
2022/06/11 01:17:11;;;;;;;5.10;1.27;;;15.80;99.90;;;;;;5074147;28;20068;-70
2022/06/11 01:20:01;;;;;;;7.10;1.70;;;15.70;99.90;;;;;;5095987;28;20040;-70
2022/06/11 01:22:57;;;;;;;5.25;1.38;;;15.70;99.90;;;;;;5104195;27;20047;-70
2022/06/11 01:25:32;;;;;;;5.45;1.85;;;15.60;99.90;;;;;;5078316;28;20123;-70
2022/06/11 01:28:01;;;;;;;6.10;1.67;;;15.50;99.90;;;;;;5105294;27;20503;-70
2022/06/11 01:30:40;;;;;;;4.55;1.75;;;15.50;99.90;;;;;;5076290;28;20051;-70
2022/06/11 01:33:17;;;;;;;4.22;1.88;;;15.40;99.90;;;;;;5073627;28;20096;-70
2022/06/11 01:36:09;;;;;;;5.50;2.08;;;15.30;99.90;;;;;;5093712;28;20048;-70
2022/06/11 01:38:41;;;;;;;8.45;2.28;;;15.30;99.90;;;;;;5092348;28;20478;-70
2022/06/11 01:41:30;;;;;;;5.32;2.58;;;15.20;99.90;;;;;;5076477;28;20066;-70
2022/06/11 01:44:10;;;;;;;6.07;3.17;;;15.20;99.90;;;;;;5076287;28;20059;-70
2022/06/11 01:46:39;;;;;;;2.97;1.58;;;15.10;99.90;;;;;;5092348;28;20094;-70
2022/06/11 01:49:20;;;;;;;5.32;2.42;;;15.00;99.90;;;;;;5092899;28;20126;-70
2022/06/11 01:52:14;;;;;;;4.95;2.47;;;15.10;99.90;;;;;;5089690;28;20044;-70
2022/06/11 01:54:56;;;;;;;4.80;2.67;;;15.00;99.90;;;;;;5091252;28;20040;-70
2022/06/11 01:57:24;;;;;;;6.03;2.80;;;15.00;99.90;;;;;;5077413;28;20078;-70
2022/06/11 02:00:15;;;;;;;4.28;2.70;;;14.90;99.90;;;;;;5096146;28;20039;-70
2022/06/11 02:03:03;;;;;;;7.63;4.40;;;14.90;99.90;;;;;;5075387;28;20093;-70
2022/06/11 02:05:47;;;;;;;10.82;7.03;;;14.90;99.90;;;;;;5075226;28;20490;-70
2022/06/11 02:08:28;;;;;;;9.75;6.90;;;14.90;99.90;;;;;;5072093;28;20125;-70
2022/06/11 02:11:13;;;;;;;9.88;7.63;;;14.90;99.90;;;;;;5092666;28;20160;-69
2022/06/11 02:13:52;;;;;;;10.93;7.93;;;14.90;99.90;;;;;;5093049;28;20469;-70
2022/06/11 02:16:32;;;;;;;16.33;9.73;;;14.90;99.90;;;;;;5076054;28;20444;-70
2022/06/11 02:19:02;;;;;;;14.57;8.75;;;15.00;99.90;;;;;;5093078;28;20397;-70
2022/06/11 02:21:31;;;;;;;12.95;8.48;;;15.00;99.90;;;;;;5077655;28;20123;-70
2022/06/11 02:23:59;;;;;;;7.95;6.28;;;15.00;99.90;;;;;;5088672;28;20051;-70
2022/06/11 02:26:33;;;;;;;13.98;7.95;;;15.10;99.90;;;;;;5071317;28;20072;-70
2022/06/11 02:29:00;;;;;;;10.48;8.13;;;15.10;99.90;;;;;;5104365;27;20047;-70
2022/06/11 02:31:33;;;;;;;12.48;7.32;;;15.10;99.90;;;;;;5077273;28;20079;-70
2022/06/11 02:34:04;;;;;;;8.93;6.85;;;15.10;99.90;;;;;;5072843;28;20039;-70
2022/06/11 02:36:43;;;;;;;17.50;8.40;;;15.10;99.90;;;;;;5071445;28;20032;-70
2022/06/11 02:39:10;;;;;;;14.15;7.22;;;15.20;99.90;;;;;;5104666;28;20039;-70
2022/06/11 02:41:36;;;;;;;10.98;7.00;;;15.20;99.90;;;;;;5072276;28;20039;-70
2022/06/11 02:44:02;;;;;;;10.07;6.25;;;15.20;99.90;;;;;;5094082;28;20039;-70
2022/06/11 02:46:43;;;;;;;13.82;6.50;;;15.20;99.90;;;;;;5091007;28;20078;-70
2022/06/11 02:49:16;;;;;;;8.77;6.68;;;15.20;99.90;;;;;;5091778;28;20043;-70
2022/06/11 02:51:42;;;;;;;10.88;6.15;;;15.20;99.90;;;;;;5071094;28;20055;-70
2022/06/11 02:54:07;;;;;;;9.80;6.05;;;15.10;99.90;;;;;;5078612;28;20056;-70
2022/06/11 02:56:33;;;;;;;7.63;5.75;;;15.00;99.90;;;;;;5073449;28;20569;-70
2022/06/11 02:58:59;;;;;;;8.32;6.00;;;15.00;99.90;;;;;;5076617;28;20039;-70
2022/06/11 03:01:25;;;;;;;11.18;6.22;;;14.90;99.90;;;;;;5093524;28;20126;-70
2022/06/11 03:03:51;;;;;;;11.52;6.28;;;14.90;99.90;;;;;;5072192;28;20478;-70
2022/06/11 03:06:19;;;;;;;13.07;6.07;;;14.90;99.90;;;;;;5073863;28;20059;-70
2022/06/11 03:08:45;;;;;;;12.02;5.50;;;15.00;99.90;;;;;;5074307;28;20043;-70
2022/06/11 03:11:12;;;;;;;12.55;6.43;;;14.90;99.90;;;;;;5091271;28;20040;-70
2022/06/11 03:13:37;;;;;;;11.98;6.40;;;15.00;99.90;;;;;;5072563;28;20103;-70
2022/06/11 03:16:03;;;;;;;12.15;6.55;;;14.90;99.90;;;;;;5071722;28;20176;-70
2022/06/11 03:18:29;;;;;;;10.18;6.28;;;15.00;99.90;;;;;;5070946;28;20036;-70
2022/06/11 03:20:54;;;;;;;12.93;6.53;;;14.90;99.90;;;;;;5106070;28;20035;-70
2022/06/11 03:23:20;;;;;;;8.32;5.10;;;14.90;99.90;;;;;;5091159;28;20044;-70
2022/06/11 03:25:47;;;;;;;8.30;5.88;;;14.90;99.90;;;;;;5075568;28;20485;-70
2022/06/11 03:28:16;;;;;;;7.13;4.75;;;14.80;99.90;;;;;;5090431;28;20534;-70
2022/06/11 03:30:43;;;;;;;6.93;4.63;;;14.70;99.90;;;;;;5091076;28;20044;-70
2022/06/11 03:33:09;;;;;;;12.50;5.80;;;14.60;99.90;;;;;;5088315;28;20047;-70
2022/06/11 03:35:35;;;;;;;9.45;5.05;;;14.50;99.90;;;;;;5090194;28;20048;-70
2022/06/11 03:38:02;;;;;;;10.50;6.10;;;14.40;99.90;;;;;;5089365;28;20040;-70
2022/06/11 03:40:27;;;;;;;10.20;5.93;;;14.30;99.90;;;;;;5073594;28;20043;-70
2022/06/11 03:42:53;;;;;;;12.15;6.72;;;14.30;99.90;;;;;;5074151;28;20044;-70
2022/06/11 03:45:19;;;;;;;7.03;5.20;;;14.40;99.90;;;;;;5072395;28;20097;-70
2022/06/11 03:47:46;;;;;;;10.20;6.68;;;14.30;99.90;;;;;;5058546;28;20051;-70
2022/06/11 03:50:25;;;;;;;9.02;5.80;;;14.30;99.90;;;;;;5090674;28;20493;-70
2022/06/11 03:52:51;;;;;;;11.35;8.02;;;14.30;99.90;;;;;;5077478;28;20059;-70
2022/06/11 03:55:17;;;;;;;15.10;8.43;;;14.40;99.90;;;;;;5079138;28;20039;-70
2022/06/11 03:57:44;;;;;;;12.32;8.32;;;14.50;99.90;;;;;;5076456;28;20043;-70
2022/06/11 04:00:15;;;;;;;11.85;8.57;;;14.60;99.90;;;;;;5093303;28;20032;-70
2022/06/11 04:02:41;;;;;;;17.02;8.73;;;14.70;99.90;;;;;;5079609;28;20059;-70
2022/06/11 04:05:07;;;;;;;8.75;7.28;;;14.80;99.90;;;;;;5077961;28;20036;-70
2022/06/11 04:07:33;;;;;;;9.27;6.80;;;15.00;99.90;;;;;;5075951;28;20405;-70
2022/06/11 04:09:59;;;;;;;11.90;7.10;;;15.30;99.90;;;;;;5110533;27;20040;-70
2022/06/11 04:12:25;;;;;;;13.13;6.32;;;15.50;99.90;;;;;;5074789;28;20040;-70
2022/06/11 04:14:51;;;;;;;12.52;7.35;;;15.60;99.90;;;;;;5075756;28;20181;-70
2022/06/11 04:17:23;;;;;;;9.25;5.82;;;15.70;99.90;;;;;;5080757;28;20047;-70
2022/06/11 04:19:50;;;;;;;10.77;5.68;;;15.90;99.90;;;;;;5073642;28;20073;-70
2022/06/11 04:22:17;;;;;;;8.32;5.63;;;16.10;99.90;;;;;;5058291;28;20175;-70
2022/06/11 04:24:43;;;;;;;9.60;5.80;;;16.30;99.90;;;;;;5075044;28;20165;-70
2022/06/11 04:27:11;;;;;;;9.30;5.07;;;16.60;99.90;;;;;;5091871;28;20032;-70
2022/06/11 04:29:43;;;;;;;6.63;4.28;;;17.20;99.90;;;;;;5076524;28;20036;-70
2022/06/11 04:32:15;;;;;;;11.52;4.90;;;18.30;99.90;;;;;;5075609;28;20121;-69
2022/06/11 04:34:41;;;;;;;8.50;4.22;;;19.60;99.90;;;;;;5075352;28;20047;-70
2022/06/11 04:37:08;;;;;;;9.50;3.85;;;20.70;99.90;;;;;;5092981;28;20040;-69
2022/06/11 04:39:33;;;;;;;7.30;3.70;;;21.70;99.90;;;;;;5104712;27;20036;-70
2022/06/11 04:42:00;;;;;;;8.23;3.72;;;22.60;99.90;;;;;;5073695;28;20050;-70
2022/06/11 04:44:26;;;;;;;10.50;3.22;;;23.40;99.90;;;;;;5078106;28;20056;-70
2022/06/11 04:46:55;;;;;;;7.13;2.78;;;24.10;99.90;;;;;;5090994;28;20039;-69
2022/06/11 04:49:21;;;;;;;7.85;3.28;;;24.90;99.90;;;;;;5093369;28;20371;-69
2022/06/11 04:51:47;;;;;;;6.30;2.50;;;25.40;99.90;;;;;;5075968;28;20188;-70
2022/06/11 04:54:13;;;;;;;9.75;2.75;;;25.80;99.90;;;;;;5078453;28;20501;-69
2022/06/11 04:56:40;;;;;;;5.88;2.08;;;26.30;99.90;;;;;;5072562;28;20040;-70
2022/06/11 04:59:06;;;;;;;9.05;3.08;;;26.70;99.90;;;;;;5056288;28;20032;-70
2022/06/11 05:01:32;;;;;;;9.57;2.85;;;27.00;99.90;;;;;;5076496;28;20042;-70
2022/06/11 05:03:58;;;;;;;8.50;2.53;;;27.50;99.90;;;;;;5076839;28;20028;-70
2022/06/11 05:06:28;;;;;;;14.68;3.10;;;27.80;99.90;;;;;;5095970;28;20432;-70
2022/06/11 05:08:54;;;;;;;12.77;2.53;;;27.90;99.90;;;;;;5071940;28;20043;-70
2022/06/11 05:11:19;;;;;;;10.82;3.55;;;27.40;99.90;;;;;;5091291;28;20045;-70
2022/06/11 05:13:45;;;;;;;11.88;3.60;;;27.50;99.90;;;;;;5097617;28;20498;-70
2022/06/11 05:16:14;;;;;;;10.77;3.20;;;27.70;99.90;;;;;;5108345;27;20044;-70
2022/06/11 05:18:39;;;;;;;10.98;2.88;;;27.90;99.90;;;;;;5075744;28;20046;-70
2022/06/11 05:21:05;;;;;;;12.50;3.25;;;28.00;99.90;;;;;;5059838;28;20473;-69
2022/06/11 05:23:31;;;;;;;11.80;3.47;;;27.80;99.90;;;;;;5091511;28;21982;-71
2022/06/11 05:25:56;;;;;;;12.30;2.20;;;27.30;99.90;;;;;;5087232;28;20036;-70
2022/06/11 05:28:27;;;;;;;12.32;2.45;;;26.40;99.90;;;;;;5076102;28;20062;-70
2022/06/11 05:30:54;;;;;;;10.98;2.88;;;25.40;99.90;;;;;;5073364;28;20044;-70
2022/06/11 05:33:22;;;;;;;8.52;2.60;;;24.70;99.90;;;;;;5076285;28;20445;-70
2022/06/11 05:35:49;;;;;;;12.93;3.72;;;24.30;99.90;;;;;;5089349;28;20091;-70
2022/06/11 05:38:19;;;;;;;14.80;3.45;;;23.80;99.90;;;;;;5075667;28;20047;-70
2022/06/11 05:40:47;;;;;;;16.13;3.53;;;23.50;99.90;;;;;;5092172;28;20097;-70
2022/06/11 05:43:13;;;;;;;12.40;2.65;;;23.20;99.90;;;;;;5075446;28;20051;-70
2022/06/11 05:45:59;;;;;;;9.43;2.53;;;23.00;99.90;;;;;;5091090;28;20417;-70
2022/06/11 05:48:29;;;;;;;15.80;3.22;;;23.00;99.90;;;;;;5068715;28;20063;-70
2022/06/11 05:50:56;;;;;;;14.23;4.38;;;22.90;99.90;;;;;;5073073;28;20122;-70
2022/06/11 05:53:24;;;;;;;13.32;3.63;;;22.80;99.90;;;;;;5055935;28;20546;-70
2022/06/11 05:55:51;;;;;;;16.70;3.88;;;22.80;99.90;;;;;;5074787;28;20174;-69
2022/06/11 05:58:22;;;;;;;16.52;4.35;;;22.70;99.90;;;;;;5089539;28;20516;-69
2022/06/11 06:00:48;;;;;;;14.27;3.50;;;22.40;99.90;;;;;;5091009;28;20035;-69
2022/06/11 06:03:14;;;;;;;18.20;3.45;;;22.40;99.90;;;;;;5089513;28;20047;-69
2022/06/11 06:05:40;;;;;;;19.00;3.63;;;22.40;99.90;;;;;;5074277;28;20063;-70
2022/06/11 06:08:08;;;;;;;15.95;3.65;;;22.40;99.90;;;;;;5073281;28;20169;-69
2022/06/11 06:10:34;;;;;;;18.23;3.63;;;22.30;99.90;;;;;;5108402;27;20042;-69
2022/06/11 06:13:00;;;;;;;13.10;3.88;;;22.20;99.90;;;;;;5086667;28;20526;-69
2022/06/11 06:15:29;;;;;;;15.52;4.07;;;22.10;99.90;;;;;;5055418;28;20063;-69
2022/06/11 06:17:55;;;;;;;17.58;3.60;;;22.10;99.90;;;;;;5070346;28;20072;-69
2022/06/11 06:20:23;;;;;;;22.73;4.25;;;22.00;99.90;;;;;;5072945;28;20071;-69
2022/06/11 06:22:49;;;;;;;18.00;4.60;;;22.10;99.90;;;;;;5076903;28;20043;-69
2022/06/11 06:25:18;;;;;;;20.42;4.00;;;22.10;99.90;;;;;;5086482;28;20044;-69
2022/06/11 06:27:43;;;;;;;14.68;3.75;;;22.10;99.90;;;;;;5071037;28;20122;-69
2022/06/11 06:30:10;;;;;;;19.45;4.50;;;22.10;99.90;;;;;;5100223;27;20147;-69
2022/06/11 06:32:36;;;;;;;18.60;4.47;;;22.20;99.90;;;;;;5103085;27;21156;-70
2022/06/11 06:35:02;;;;;;;13.98;3.92;;;22.30;99.90;;;;;;5073228;28;20043;-69
2022/06/11 06:37:28;;;;;;;16.58;3.85;;;22.20;99.90;;;;;;5066422;28;20060;-69
2022/06/11 06:39:53;;;;;;;19.05;4.22;;;22.20;99.90;;;;;;5068730;28;20068;-70
2022/06/11 06:42:19;;;;;;;16.35;4.28;;;22.40;99.90;;;;;;5092303;28;20050;-69
2022/06/11 06:44:45;;;;;;;16.70;4.13;;;22.50;99.90;;;;;;5087728;28;20043;-69
2022/06/11 06:47:11;;;;;;;15.48;3.80;;;22.60;99.90;;;;;;5072476;28;20078;-69
2022/06/11 06:49:37;;;;;;;21.65;4.47;;;22.70;99.90;;;;;;5091719;28;20599;-69
2022/06/11 06:52:03;;;;;;;20.27;5.32;;;22.90;99.90;;;;;;5095795;27;20040;-69
2022/06/11 06:54:29;;;;;;;16.35;5.18;;;23.00;99.90;;;;;;5090429;28;20043;-69
2022/06/11 06:56:54;;;;;;;15.85;4.18;;;23.00;99.90;;;;;;5103770;28;20040;-69
2022/06/11 06:59:20;;;;;;;21.00;5.05;;;23.00;99.90;;;;;;5074000;28;20036;-69
2022/06/11 07:01:45;;;;;;;19.92;5.28;;;23.30;99.90;;;;;;5069802;28;20074;-69
2022/06/11 07:04:12;;;;;;;16.33;5.10;;;23.20;99.90;;;;;;5073039;28;20036;-69
2022/06/11 07:06:40;;;;;;;18.73;5.10;;;23.10;99.90;;;;;;5092133;28;20024;-69
2022/06/11 07:09:07;;;;;;;16.30;3.85;;;22.80;99.90;;;;;;5071747;28;20067;-69
2022/06/11 07:11:33;;;;;;;24.73;5.32;;;22.90;99.90;;;;;;5105909;28;20032;-68
2022/06/11 07:13:58;;;;;;;19.05;5.05;;;23.00;99.90;;;;;;5072736;28;20035;-69
2022/06/11 07:16:34;;;;;;;18.67;4.82;;;22.90;99.90;;;;;;5087058;28;20043;-69
2022/06/11 07:19:03;;;;;;;19.23;4.57;;;22.90;99.90;;;;;;5072599;28;20044;-68
2022/06/11 07:21:34;;;;;;;21.83;5.80;;;22.90;99.90;;;;;;5071007;28;20075;-69
2022/06/11 07:24:05;;;;;;;19.17;4.45;;;22.90;99.90;;;;;;5089329;28;20058;-69
2022/06/11 07:26:42;;;;;;;21.13;4.15;;;23.00;99.90;;;;;;5105050;27;20067;-69
2022/06/11 07:29:15;;;;;;;23.70;4.97;;;22.80;99.90;;;;;;5092492;28;20101;-69
2022/06/11 07:31:44;;;;;;;19.60;4.32;;;22.60;99.90;;;;;;5086822;28;20090;-69
2022/06/11 07:34:11;;;;;;;20.48;4.43;;;22.80;99.90;;;;;;5076445;28;20035;-69
2022/06/11 07:36:37;;;;;;;18.02;4.85;;;23.00;99.90;;;;;;5087449;28;20032;-69
2022/06/11 07:39:03;;;;;;;19.20;4.38;;;23.00;99.90;;;;;;5065396;28;20036;-69
2022/06/11 07:41:29;;;;;;;18.65;4.65;;;23.00;99.90;;;;;;5066421;28;20422;-68
2022/06/11 07:43:55;;;;;;;22.20;4.13;;;23.00;99.90;;;;;;5096729;28;20550;-68
2022/06/11 07:46:21;;;;;;;19.15;4.47;;;23.10;99.90;;;;;;5078387;28;20035;-68
2022/06/11 07:48:48;;;;;;;22.75;5.55;;;23.20;99.90;;;;;;5076695;28;20093;-68
2022/06/11 07:51:16;;;;;;;16.98;4.53;;;23.10;99.90;;;;;;5080720;28;20051;-68
2022/06/11 07:53:42;;;;;;;17.15;4.97;;;23.20;99.90;;;;;;5078895;28;20044;-68
2022/06/11 07:56:07;;;;;;;18.20;4.78;;;23.30;99.90;;;;;;5088129;28;20044;-68
2022/06/11 07:58:33;;;;;;;16.08;4.13;;;23.20;99.90;;;;;;5096152;28;20119;-68
2022/06/11 08:00:59;;;;;;;18.00;4.25;;;23.30;99.90;;;;;;5097466;28;20032;-68
2022/06/11 08:03:27;;;;;;;19.70;4.85;;;23.30;99.90;;;;;;5095009;28;20474;-68
2022/06/11 08:05:54;;;;;;;13.77;3.75;;;23.50;99.90;;;;;;5093593;28;20043;-68
2022/06/11 08:08:21;;;;;;;18.35;5.38;;;23.60;99.90;;;;;;5097857;28;20435;-68
2022/06/11 08:10:47;;;;;;;30.15;5.57;;;23.60;99.90;;;;;;5095805;28;20031;-68
2022/06/11 08:13:14;;;;;;;15.93;4.30;;;23.70;99.90;;;;;;5074247;28;20048;-68
2022/06/11 08:15:41;;;;;;;19.83;5.38;;;23.70;99.90;;;;;;5089263;28;20202;-68
2022/06/11 08:18:07;;;;;;;14.45;3.70;;;23.90;99.90;;;;;;5072218;28;20111;-68
2022/06/11 08:20:34;;;;;;;20.02;4.68;;;23.80;99.90;;;;;;5077147;28;20558;-68
2022/06/11 08:23:01;;;;;;;20.90;4.75;;;23.90;99.90;;;;;;5100444;28;20114;-68
2022/06/11 08:25:27;;;;;;;19.45;4.57;;;23.90;99.90;;;;;;5075646;28;20483;-68
2022/06/11 08:27:54;;;;;;;21.38;5.30;;;23.80;99.90;;;;;;5092548;28;20050;-69
2022/06/11 08:30:22;;;;;;;22.08;5.57;;;23.70;99.90;;;;;;5069953;28;20470;-69
2022/06/11 08:32:48;;;;;;;18.25;4.93;;;23.50;99.90;;;;;;5078624;28;20043;-69
2022/06/11 08:35:15;;;;;;;19.13;4.45;;;23.50;99.90;;;;;;5092726;28;20148;-68
2022/06/11 08:37:41;;;;;;;17.20;4.63;;;23.60;99.90;;;;;;5094306;28;20089;-69
2022/06/11 08:40:14;;;;;;;16.98;5.05;;;23.60;99.90;;;;;;5107240;27;20040;-68
2022/06/11 08:42:42;;;;;;;25.88;5.10;;;23.80;99.90;;;;;;5092831;28;20112;-68
2022/06/11 08:45:18;;;;;;;19.25;4.68;;;23.80;99.90;;;;;;5093426;28;20085;-68
2022/06/11 08:47:49;;;;;;;17.40;3.97;;;23.70;99.90;;;;;;5092252;28;20478;-68
2022/06/11 08:50:27;;;;;;;22.38;5.45;;;23.80;99.90;;;;;;5107291;27;20055;-68
2022/06/11 08:52:53;;;;;;;18.20;4.45;;;23.70;99.90;;;;;;5098591;28;20035;-68
2022/06/11 08:55:21;;;;;;;21.02;5.65;;;23.30;99.90;;;;;;5076393;28;20153;-68
2022/06/11 08:58:02;;;;;;;15.00;3.80;;;23.30;99.90;;;;;;5074973;28;20048;-68
2022/06/11 09:00:52;;;;;;;27.50;4.32;;;23.50;99.90;;;;;;5095376;28;20677;-68
2022/06/11 09:03:27;;;;;;;17.48;4.30;;;23.60;99.90;;;;;;5059134;28;20078;-68
2022/06/11 09:06:38;;;;;;;21.23;4.20;;;23.80;99.90;;;;;;5073712;28;20093;-68
2022/06/11 09:09:22;;;;;;;21.42;4.32;;;24.00;99.90;;;;;;5078042;28;20065;-68
2022/06/11 09:12:02;;;;;;;18.90;4.43;;;24.00;99.90;;;;;;5107406;27;20097;-68
2022/06/11 09:15:00;;;;;;;21.30;4.30;;;24.10;99.90;;;;;;5074008;28;20045;-68
2022/06/11 09:17:52;;;;;;;17.75;4.82;;;24.30;99.90;;;;;;5078705;28;20040;-68
2022/06/11 09:20:38;;;;;;;15.52;3.75;;;24.40;99.90;;;;;;5078900;28;20067;-68
2022/06/11 09:23:36;;;;;;;15.20;3.60;;;24.40;99.90;;;;;;5111497;27;20114;-68
2022/06/11 09:26:25;;;;;;;13.68;3.65;;;24.30;99.90;;;;;;5079352;28;20071;-68
2022/06/11 09:29:38;;;;;;;13.82;3.78;;;24.20;99.90;;;;;;5079557;28;20067;-68
2022/06/11 09:32:13;;;;;;;15.27;3.95;;;24.10;99.90;;;;;;4971451;28;20508;-68
2022/06/11 09:35:10;;;;;;;19.20;4.43;;;24.30;99.90;;;;;;4988369;28;20066;-69
2022/06/11 09:37:55;;;;;;;17.52;4.38;;;24.50;99.90;;;;;;5063545;28;20048;-67
2022/06/11 09:40:34;;;;;;;19.05;4.93;;;24.50;99.90;;;;;;5074404;28;20111;-69
2022/06/11 09:43:20;;;;;;;15.95;3.95;;;24.60;99.90;;;;;;5106576;27;21649;-69
2022/06/11 09:46:07;;;;;;;16.13;4.18;;;24.50;99.90;;;;;;5071954;28;20474;-67
2022/06/11 09:48:57;;;;;;;12.40;3.40;;;24.60;99.90;;;;;;5068232;28;20406;-68
2022/06/11 09:51:46;;;;;;;18.20;3.47;;;24.70;99.90;;;;;;5085845;28;20032;-68
2022/06/11 09:54:37;;;;;;;11.98;2.95;;;24.80;99.90;;;;;;5084716;28;20043;-66
2022/06/11 09:57:19;;;;;;;15.82;3.03;;;24.90;99.90;;;;;;5092712;28;20489;-67
2022/06/11 09:59:49;;;;;;;37.40;4.63;;;24.80;99.90;;;;;;5076475;28;20039;-69
2022/06/11 10:02:37;;;;;;;18.65;3.72;;;24.90;99.90;;;;;;5072345;28;20043;-68
2022/06/11 10:05:08;;;;;;;14.95;3.33;;;25.00;99.80;;;;;;5071748;28;20051;-69
2022/06/11 10:07:42;;;;;;;9.88;3.08;;;25.10;99.90;;;;;;5060465;28;20044;-66
2022/06/11 10:10:22;;;;;;;14.15;2.95;;;25.10;99.90;;;;;;5070099;28;20588;-68
2022/06/11 10:12:55;;;;;;;12.55;3.15;;;25.30;99.90;;;;;;5079672;28;20039;-69
2022/06/11 10:15:36;;;;;;;9.52;2.70;;;25.40;99.90;;;;;;5071145;28;20182;-69
2022/06/11 10:18:25;;;;;;;15.30;3.47;;;25.60;99.80;;;;;;5107770;27;20304;-69
2022/06/11 10:21:02;;;;;;;14.13;3.25;;;25.40;99.90;;;;;;5099495;28;20051;-68
2022/06/11 10:23:53;;;;;;;13.63;3.78;;;25.30;99.90;;;;;;5069112;28;20039;-68
2022/06/11 10:26:34;;;;;;;11.73;2.67;;;25.30;99.90;;;;;;5093861;28;20117;-68
2022/06/11 10:29:33;;;;;;;14.05;3.60;;;25.20;99.90;;;;;;5062412;28;20047;-68
2022/06/11 10:32:18;;;;;;;18.23;3.70;;;25.30;99.90;;;;;;5086869;28;20663;-68
2022/06/11 10:34:50;;;;;;;14.02;3.38;;;25.20;99.30;;;;;;5086631;28;20042;-68
2022/06/11 10:37:25;;;;;;;14.90;2.72;;;25.20;98.60;;;;;;5091444;28;20508;-69
2022/06/11 10:40:16;;;;;;;11.95;2.80;;;25.40;99.90;;;;;;5098393;28;20035;-68
2022/06/11 10:42:51;;;;;;;9.98;2.55;;;25.50;99.40;;;;;;5058088;28;20088;-68
2022/06/11 10:45:17;;;;;;;13.43;3.33;;;25.70;99.70;;;;;;5082382;28;20028;-68
2022/06/11 10:47:48;;;;;;;10.77;2.80;;;25.60;98.70;;;;;;5090661;28;20032;-68
2022/06/11 10:50:34;;;;;;;12.77;3.03;;;25.30;98.20;;;;;;5092766;28;20156;-68
2022/06/11 10:53:00;;;;;;;12.00;3.45;;;24.90;98.30;;;;;;5066318;28;20063;-68
2022/06/11 10:55:34;;;;;;;13.25;3.33;;;24.90;98.30;;;;;;5084958;28;20386;-68
2022/06/11 10:58:34;;;;;;;13.18;2.85;;;24.90;97.90;;;;;;5072104;28;20075;-69
2022/06/11 11:01:13;;;;;;;12.05;3.22;;;24.70;97.80;;;;;;5082313;28;20039;-68
2022/06/11 11:03:50;;;;;;;11.00;2.33;;;24.50;98.50;;;;;;5088408;28;20036;-68
2022/06/11 11:06:34;;;;;;;12.60;2.88;;;24.30;98.70;;;;;;5070461;28;20114;-68
2022/06/11 11:09:06;;;;;;;12.68;3.53;;;24.10;98.70;;;;;;5051831;28;20047;-67
2022/06/11 11:11:43;;;;;;;13.80;3.08;;;24.20;97.10;;;;;;5088535;28;20078;-68
2022/06/11 11:14:16;;;;;;;16.00;3.78;;;24.20;98.40;;;;;;5074239;28;20055;-68
2022/06/11 11:16:47;;;;;;;13.95;3.40;;;24.20;99.00;;;;;;5085772;28;20075;-68
2022/06/11 11:19:32;;;;;;;12.18;2.90;;;24.20;98.70;;;;;;5105261;28;20043;-68
2022/06/11 11:22:07;;;;;;;13.73;3.30;;;24.20;98.90;;;;;;5075087;28;20450;-69
2022/06/11 11:24:43;;;;;;;13.15;2.70;;;24.20;99.40;;;;;;5101214;27;20043;-68
2022/06/11 11:27:20;;;;;;;20.45;2.90;;;24.30;99.10;;;;;;5091711;28;20431;-68
2022/06/11 11:29:53;;;;;;;13.25;3.53;;;24.30;98.80;;;;;;5106015;28;20501;-68
2022/06/11 11:32:30;;;;;;;12.05;3.42;;;24.30;99.60;;;;;;5072824;28;20075;-68
2022/06/11 11:34:55;;;;;;;18.67;4.10;;;24.30;99.10;;;;;;5095444;28;20039;-68
2022/06/11 11:37:31;;;;;;;13.50;3.25;;;24.30;98.90;;;;;;5077567;28;20531;-68
2022/06/11 11:40:00;;;;;;;14.77;3.40;;;24.40;98.50;;;;;;5096822;28;20498;-68
2022/06/11 11:42:26;;;;;;;16.27;3.70;;;24.40;97.80;;;;;;5091699;28;20050;-68
2022/06/11 11:44:57;;;;;;;13.20;2.80;;;24.30;98.30;;;;;;5074505;28;20056;-68
2022/06/11 11:47:41;;;;;;;13.93;2.78;;;24.30;98.10;;;;;;5086319;28;20407;-68
2022/06/11 11:50:13;;;;;;;14.52;2.80;;;24.20;97.70;;;;;;5107759;28;20047;-69
2022/06/11 11:52:45;;;;;;;8.70;3.20;;;24.20;99.00;;;;;;5075945;28;20048;-68
2022/06/11 11:55:25;;;;;;;14.10;3.65;;;24.10;98.40;;;;;;5074624;28;20039;-69
2022/06/11 11:58:14;;;;;;;11.65;2.38;;;24.20;99.90;;;;;;5094306;28;20089;-69
2022/06/11 12:00:49;;;;;;;12.60;3.00;;;24.10;99.60;;;;;;5070027;28;20107;-68
2022/06/11 12:03:29;;;;;;;;;;;24.10;99.90;;;;;;5092142;28;20086;-68
2022/06/11 12:05:57;;;;;;;8.77;2.63;;;24.20;98.80;;;;;;5079629;28;19920;-69
2022/06/11 12:08:29;;;;;;;10.90;2.47;;;24.10;98.40;;;;;;5093421;28;20121;-69
2022/06/11 12:11:00;;;;;;;10.32;3.13;;;24.00;97.60;;;;;;5079682;28;20047;-68
2022/06/11 12:13:42;;;;;;;9.88;3.03;;;24.10;98.90;;;;;;5077766;28;20124;-68
2022/06/11 12:16:31;;;;;;;10.95;2.35;;;24.20;99.30;;;;;;5092430;28;20035;-69
2022/06/11 12:19:14;;;;;;;11.55;3.08;;;24.20;99.30;;;;;;5083332;28;20047;-68
2022/06/11 12:21:42;;;;;;;13.48;2.85;;;24.30;99.90;;;;;;5093268;28;20054;-68
2022/06/11 12:24:31;;;;;;;9.07;2.13;;;24.30;98.90;;;;;;5093091;28;20062;-68
2022/06/11 12:27:03;;;;;;;20.92;3.25;;;24.20;97.00;;;;;;5070501;28;20044;-69
2022/06/11 12:29:54;;;;;;;9.77;2.28;;;24.20;98.30;;;;;;5081677;28;20119;-69
2022/06/11 12:32:23;;;;;;;13.75;2.90;;;24.30;99.80;;;;;;5066623;28;20052;-68
2022/06/11 12:34:51;;;;;;;10.23;2.38;;;24.30;99.40;;;;;;5114737;27;20040;-69
2022/06/11 12:37:37;;;;;;;7.35;2.20;;;24.40;99.60;;;;;;5078878;28;20036;-69
2022/06/11 12:40:11;;;;;;;;;;;24.40;99.40;;;;;;5097939;28;20097;-69
2022/06/11 12:42:41;;;;;;;10.10;2.25;;;24.40;99.10;;;;;;5091847;28;20384;-69
2022/06/11 12:45:29;;;;;;;10.10;2.65;;;24.50;99.50;;;;;;5075520;28;20043;-69
2022/06/11 12:48:17;;;;;;;9.57;2.90;;;24.50;99.90;;;;;;5077305;28;20044;-69
2022/06/11 12:50:53;;;;;;;15.13;3.17;;;24.70;99.90;;;;;;5094492;28;20044;-69
2022/06/11 12:53:49;;;;;;;11.77;2.92;;;24.70;99.90;;;;;;5092151;28;20066;-69
2022/06/11 12:56:54;;;;;;;11.02;2.50;;;24.80;99.20;;;;;;5076522;28;20031;-69
2022/06/11 12:59:34;;;;;;;12.05;2.90;;;24.70;98.20;;;;;;5099418;28;20035;-69
2022/06/11 13:02:15;;;;;;;10.00;2.72;;;24.70;99.70;;;;;;5092312;28;20032;-69
2022/06/11 13:05:18;;;;;;;13.65;3.70;;;24.80;99.90;;;;;;5097347;28;20043;-69
2022/06/11 13:07:53;;;;;;;11.52;2.83;;;24.90;98.80;;;;;;5097828;28;20035;-69
2022/06/11 13:10:41;;;;;;;8.93;3.10;;;24.80;98.20;;;;;;5098276;28;20665;-69